sensor_id;sensor_type;location;lat;lon;timestamp;P1;durP1;ratioP1;P2;durP2;ratioP2
45650;SDS011;31365;48.858;8.530;2022-11-14T00:02:18;9.10;;;8.20;;
45650;SDS011;31365;48.858;8.530;2022-11-14T00:05:08;10.40;;;8.17;;
45650;SDS011;31365;48.858;8.530;2022-11-14T00:07:55;9.50;;;8.50;;
45650;SDS011;31365;48.858;8.530;2022-11-14T00:10:44;9.33;;;8.23;;
45650;SDS011;31365;48.858;8.530;2022-11-14T00:13:32;9.80;;;8.80;;
45650;SDS011;31365;48.858;8.530;2022-11-14T00:16:20;17.70;;;8.40;;
45650;SDS011;31365;48.858;8.530;2022-11-14T00:19:07;14.47;;;8.77;;
45650;SDS011;31365;48.858;8.530;2022-11-14T00:21:56;9.50;;;8.50;;
45650;SDS011;31365;48.858;8.530;2022-11-14T00:24:44;9.07;;;8.10;;
45650;SDS011;31365;48.858;8.530;2022-11-14T00:27:31;9.73;;;8.83;;
45650;SDS011;31365;48.858;8.530;2022-11-14T00:30:18;9.30;;;8.37;;
45650;SDS011;31365;48.858;8.530;2022-11-14T00:33:06;10.03;;;8.73;;
45650;SDS011;31365;48.858;8.530;2022-11-14T00:35:53;14.73;;;9.53;;
45650;SDS011;31365;48.858;8.530;2022-11-14T00:38:43;11.80;;;8.27;;
45650;SDS011;31365;48.858;8.530;2022-11-14T00:41:31;9.77;;;8.63;;
45650;SDS011;31365;48.858;8.530;2022-11-14T00:44:18;8.77;;;7.80;;
45650;SDS011;31365;48.858;8.530;2022-11-14T00:47:05;8.60;;;7.80;;
45650;SDS011;31365;48.858;8.530;2022-11-14T00:49:52;9.80;;;8.17;;
45650;SDS011;31365;48.858;8.530;2022-11-14T00:52:39;11.40;;;8.77;;
45650;SDS011;31365;48.858;8.530;2022-11-14T00:55:28;9.73;;;8.03;;
45650;SDS011;31365;48.858;8.530;2022-11-14T00:58:15;8.77;;;7.87;;
45650;SDS011;31365;48.858;8.530;2022-11-14T01:01:03;8.00;;;7.30;;
45650;SDS011;31365;48.858;8.530;2022-11-14T01:03:51;8.63;;;7.83;;
45650;SDS011;31365;48.858;8.530;2022-11-14T01:06:38;9.00;;;7.73;;
45650;SDS011;31365;48.858;8.530;2022-11-14T01:09:25;6.87;;;5.93;;
45650;SDS011;31365;48.858;8.530;2022-11-14T01:12:14;6.43;;;5.83;;
45650;SDS011;31365;48.858;8.530;2022-11-14T01:15:01;5.47;;;4.63;;
45650;SDS011;31365;48.858;8.530;2022-11-14T01:17:49;5.40;;;4.90;;
45650;SDS011;31365;48.858;8.530;2022-11-14T01:20:37;5.23;;;4.73;;
45650;SDS011;31365;48.858;8.530;2022-11-14T01:23:24;4.67;;;4.17;;
45650;SDS011;31365;48.858;8.530;2022-11-14T01:26:12;4.77;;;4.30;;
45650;SDS011;31365;48.858;8.530;2022-11-14T01:29:01;6.03;;;3.83;;
45650;SDS011;31365;48.858;8.530;2022-11-14T01:31:49;5.23;;;4.17;;
45650;SDS011;31365;48.858;8.530;2022-11-14T01:34:37;4.27;;;3.87;;
45650;SDS011;31365;48.858;8.530;2022-11-14T01:37:24;4.37;;;3.97;;
45650;SDS011;31365;48.858;8.530;2022-11-14T01:40:11;4.90;;;4.50;;
45650;SDS011;31365;48.858;8.530;2022-11-14T01:46:24;6.47;;;4.70;;
45650;SDS011;31365;48.858;8.530;2022-11-14T01:49:16;7.53;;;6.07;;
45650;SDS011;31365;48.858;8.530;2022-11-14T01:52:09;7.23;;;6.30;;
45650;SDS011;31365;48.858;8.530;2022-11-14T01:55:02;7.93;;;5.90;;
45650;SDS011;31365;48.858;8.530;2022-11-14T01:57:54;6.67;;;5.87;;
45650;SDS011;31365;48.858;8.530;2022-11-14T02:00:43;5.43;;;4.93;;
45650;SDS011;31365;48.858;8.530;2022-11-14T02:03:32;6.53;;;5.07;;
45650;SDS011;31365;48.858;8.530;2022-11-14T02:06:26;8.13;;;4.90;;
45650;SDS011;31365;48.858;8.530;2022-11-14T02:09:16;5.67;;;5.07;;
45650;SDS011;31365;48.858;8.530;2022-11-14T02:12:05;5.00;;;4.50;;
45650;SDS011;31365;48.858;8.530;2022-11-14T02:14:57;5.07;;;4.53;;
45650;SDS011;31365;48.858;8.530;2022-11-14T02:17:45;4.70;;;4.30;;
45650;SDS011;31365;48.858;8.530;2022-11-14T02:20:35;4.80;;;4.40;;
45650;SDS011;31365;48.858;8.530;2022-11-14T02:23:28;5.37;;;4.87;;
45650;SDS011;31365;48.858;8.530;2022-11-14T02:26:17;4.90;;;4.40;;
45650;SDS011;31365;48.858;8.530;2022-11-14T02:29:09;5.17;;;4.67;;
45650;SDS011;31365;48.858;8.530;2022-11-14T02:31:56;4.33;;;3.93;;
45650;SDS011;31365;48.858;8.530;2022-11-14T02:34:43;4.73;;;4.27;;
45650;SDS011;31365;48.858;8.530;2022-11-14T02:37:32;5.00;;;4.50;;
45650;SDS011;31365;48.858;8.530;2022-11-14T02:40:18;5.70;;;4.40;;
45650;SDS011;31365;48.858;8.530;2022-11-14T02:43:06;5.67;;;4.33;;
45650;SDS011;31365;48.858;8.530;2022-11-14T02:45:53;4.83;;;4.27;;
45650;SDS011;31365;48.858;8.530;2022-11-14T02:48:46;4.70;;;4.30;;
45650;SDS011;31365;48.858;8.530;2022-11-14T02:51:33;5.70;;;4.40;;
45650;SDS011;31365;48.858;8.530;2022-11-14T02:54:21;5.10;;;4.60;;
45650;SDS011;31365;48.858;8.530;2022-11-14T02:57:08;5.33;;;4.83;;
45650;SDS011;31365;48.858;8.530;2022-11-14T02:59:56;4.23;;;3.83;;
45650;SDS011;31365;48.858;8.530;2022-11-14T03:02:43;5.20;;;4.00;;
45650;SDS011;31365;48.858;8.530;2022-11-14T03:05:30;5.23;;;4.73;;
45650;SDS011;31365;48.858;8.530;2022-11-14T03:08:18;5.07;;;4.50;;
45650;SDS011;31365;48.858;8.530;2022-11-14T03:11:07;5.40;;;4.63;;
45650;SDS011;31365;48.858;8.530;2022-11-14T03:13:56;6.53;;;4.50;;
45650;SDS011;31365;48.858;8.530;2022-11-14T03:16:45;6.00;;;4.30;;
45650;SDS011;31365;48.858;8.530;2022-11-14T03:19:32;9.70;;;4.90;;
45650;SDS011;31365;48.858;8.530;2022-11-14T03:22:20;8.07;;;5.00;;
45650;SDS011;31365;48.858;8.530;2022-11-14T03:25:08;6.67;;;5.03;;
45650;SDS011;31365;48.858;8.530;2022-11-14T03:27:56;14.43;;;5.03;;
45650;SDS011;31365;48.858;8.530;2022-11-14T03:30:43;9.63;;;5.33;;
45650;SDS011;31365;48.858;8.530;2022-11-14T03:33:32;8.60;;;4.57;;
45650;SDS011;31365;48.858;8.530;2022-11-14T03:36:21;5.60;;;4.77;;
45650;SDS011;31365;48.858;8.530;2022-11-14T03:39:08;14.10;;;4.57;;
45650;SDS011;31365;48.858;8.530;2022-11-14T03:41:55;11.20;;;4.80;;
45650;SDS011;31365;48.858;8.530;2022-11-14T03:44:44;11.80;;;5.17;;
45650;SDS011;31365;48.858;8.530;2022-11-14T03:47:31;7.90;;;4.90;;
45650;SDS011;31365;48.858;8.530;2022-11-14T03:50:18;15.90;;;5.90;;
45650;SDS011;31365;48.858;8.530;2022-11-14T03:53:06;5.43;;;4.90;;
45650;SDS011;31365;48.858;8.530;2022-11-14T03:55:53;5.67;;;5.07;;
45650;SDS011;31365;48.858;8.530;2022-11-14T03:58:41;8.37;;;4.77;;
45650;SDS011;31365;48.858;8.530;2022-11-14T04:01:29;7.57;;;4.90;;
45650;SDS011;31365;48.858;8.530;2022-11-14T04:04:16;22.57;;;5.23;;
45650;SDS011;31365;48.858;8.530;2022-11-14T04:07:04;9.70;;;4.53;;
45650;SDS011;31365;48.858;8.530;2022-11-14T04:09:51;6.67;;;4.27;;
45650;SDS011;31365;48.858;8.530;2022-11-14T04:12:39;5.87;;;4.47;;
45650;SDS011;31365;48.858;8.530;2022-11-14T04:15:26;9.23;;;5.20;;
45650;SDS011;31365;48.858;8.530;2022-11-14T04:18:14;9.50;;;4.47;;
45650;SDS011;31365;48.858;8.530;2022-11-14T04:21:02;11.43;;;4.37;;
45650;SDS011;31365;48.858;8.530;2022-11-14T04:23:49;5.50;;;4.93;;
45650;SDS011;31365;48.858;8.530;2022-11-14T04:26:36;29.00;;;5.87;;
45650;SDS011;31365;48.858;8.530;2022-11-14T04:29:24;11.80;;;4.30;;
45650;SDS011;31365;48.858;8.530;2022-11-14T04:32:11;12.23;;;4.93;;
45650;SDS011;31365;48.858;8.530;2022-11-14T04:35:00;12.07;;;4.97;;
45650;SDS011;31365;48.858;8.530;2022-11-14T04:37:47;10.63;;;5.90;;
45650;SDS011;31365;48.858;8.530;2022-11-14T04:40:34;27.40;;;11.67;;
45650;SDS011;31365;48.858;8.530;2022-11-14T04:43:22;10.60;;;8.20;;
45650;SDS011;31365;48.858;8.530;2022-11-14T04:46:09;7.77;;;5.43;;
45650;SDS011;31365;48.858;8.530;2022-11-14T04:48:56;6.30;;;4.80;;
45650;SDS011;31365;48.858;8.530;2022-11-14T04:51:44;4.83;;;4.33;;
45650;SDS011;31365;48.858;8.530;2022-11-14T04:54:32;4.00;;;3.70;;
45650;SDS011;31365;48.858;8.530;2022-11-14T04:57:19;5.60;;;5.10;;
45650;SDS011;31365;48.858;8.530;2022-11-14T05:00:07;9.17;;;4.57;;
45650;SDS011;31365;48.858;8.530;2022-11-14T05:02:57;9.93;;;4.10;;
45650;SDS011;31365;48.858;8.530;2022-11-14T05:05:45;4.60;;;3.90;;
45650;SDS011;31365;48.858;8.530;2022-11-14T05:08:34;6.90;;;4.80;;
45650;SDS011;31365;48.858;8.530;2022-11-14T05:11:22;7.13;;;4.30;;
45650;SDS011;31365;48.858;8.530;2022-11-14T05:14:13;7.53;;;5.27;;
45650;SDS011;31365;48.858;8.530;2022-11-14T05:17:00;8.77;;;4.20;;
45650;SDS011;31365;48.858;8.530;2022-11-14T05:19:48;7.57;;;5.07;;
45650;SDS011;31365;48.858;8.530;2022-11-14T05:22:36;9.23;;;5.20;;
45650;SDS011;31365;48.858;8.530;2022-11-14T05:25:24;4.60;;;4.20;;
45650;SDS011;31365;48.858;8.530;2022-11-14T05:28:11;7.80;;;4.83;;
45650;SDS011;31365;48.858;8.530;2022-11-14T05:30:59;10.90;;;4.60;;
45650;SDS011;31365;48.858;8.530;2022-11-14T05:33:47;5.30;;;4.30;;
45650;SDS011;31365;48.858;8.530;2022-11-14T05:36:36;4.53;;;4.10;;
45650;SDS011;31365;48.858;8.530;2022-11-14T05:39:23;6.97;;;5.50;;
45650;SDS011;31365;48.858;8.530;2022-11-14T05:42:11;5.37;;;4.47;;
45650;SDS011;31365;48.858;8.530;2022-11-14T05:44:59;5.90;;;5.27;;
45650;SDS011;31365;48.858;8.530;2022-11-14T05:57:05;5.00;;;4.50;;
45650;SDS011;31365;48.858;8.530;2022-11-14T05:59:53;7.30;;;5.80;;
45650;SDS011;31365;48.858;8.530;2022-11-14T06:02:40;4.87;;;4.47;;
45650;SDS011;31365;48.858;8.530;2022-11-14T06:05:27;4.00;;;3.70;;
45650;SDS011;31365;48.858;8.530;2022-11-14T06:08:14;13.17;;;5.43;;
45650;SDS011;31365;48.858;8.530;2022-11-14T06:11:06;5.10;;;4.57;;
45650;SDS011;31365;48.858;8.530;2022-11-14T06:13:59;13.40;;;7.77;;
45650;SDS011;31365;48.858;8.530;2022-11-14T06:16:54;10.03;;;6.33;;
45650;SDS011;31365;48.858;8.530;2022-11-14T06:19:41;5.13;;;4.20;;
45650;SDS011;31365;48.858;8.530;2022-11-14T06:22:28;3.60;;;3.23;;
45650;SDS011;31365;48.858;8.530;2022-11-14T06:25:16;6.03;;;4.20;;
45650;SDS011;31365;48.858;8.530;2022-11-14T06:28:03;4.40;;;3.43;;
45650;SDS011;31365;48.858;8.530;2022-11-14T06:30:51;7.63;;;3.87;;
45650;SDS011;31365;48.858;8.530;2022-11-14T06:33:46;7.00;;;4.07;;
45650;SDS011;31365;48.858;8.530;2022-11-14T06:36:34;3.70;;;3.40;;
45650;SDS011;31365;48.858;8.530;2022-11-14T06:39:21;7.43;;;5.57;;
45650;SDS011;31365;48.858;8.530;2022-11-14T06:42:12;5.77;;;4.00;;
45650;SDS011;31365;48.858;8.530;2022-11-14T06:45:01;8.50;;;5.13;;
45650;SDS011;31365;48.858;8.530;2022-11-14T06:47:49;5.07;;;4.33;;
45650;SDS011;31365;48.858;8.530;2022-11-14T06:50:38;4.00;;;3.70;;
45650;SDS011;31365;48.858;8.530;2022-11-14T06:53:26;3.47;;;3.17;;
45650;SDS011;31365;48.858;8.530;2022-11-14T06:56:19;4.40;;;3.50;;
45650;SDS011;31365;48.858;8.530;2022-11-14T06:59:06;3.67;;;3.37;;
45650;SDS011;31365;48.858;8.530;2022-11-14T07:01:54;3.63;;;3.33;;
45650;SDS011;31365;48.858;8.530;2022-11-14T07:04:42;36.27;;;26.90;;
45650;SDS011;31365;48.858;8.530;2022-11-14T07:07:31;20.60;;;16.87;;
45650;SDS011;31365;48.858;8.530;2022-11-14T07:10:17;4.90;;;4.40;;
45650;SDS011;31365;48.858;8.530;2022-11-14T07:13:05;6.40;;;4.40;;
45650;SDS011;31365;48.858;8.530;2022-11-14T07:15:58;2.80;;;2.37;;
45650;SDS011;31365;48.858;8.530;2022-11-14T07:18:46;2.23;;;1.80;;
45650;SDS011;31365;48.858;8.530;2022-11-14T07:21:34;3.23;;;1.67;;
45650;SDS011;31365;48.858;8.530;2022-11-14T07:24:23;7.23;;;3.70;;
45650;SDS011;31365;48.858;8.530;2022-11-14T07:27:10;5.07;;;3.70;;
45650;SDS011;31365;48.858;8.530;2022-11-14T07:29:59;2.80;;;1.70;;
45650;SDS011;31365;48.858;8.530;2022-11-14T07:32:53;2.43;;;1.90;;
45650;SDS011;31365;48.858;8.530;2022-11-14T07:35:41;3.27;;;2.43;;
45650;SDS011;31365;48.858;8.530;2022-11-14T07:38:29;2.40;;;1.97;;
45650;SDS011;31365;48.858;8.530;2022-11-14T07:41:18;2.37;;;1.90;;
45650;SDS011;31365;48.858;8.530;2022-11-14T07:44:05;2.40;;;2.20;;
45650;SDS011;31365;48.858;8.530;2022-11-14T07:46:52;2.17;;;1.97;;
45650;SDS011;31365;48.858;8.530;2022-11-14T07:49:39;4.77;;;2.30;;
45650;SDS011;31365;48.858;8.530;2022-11-14T07:52:26;2.77;;;2.40;;
45650;SDS011;31365;48.858;8.530;2022-11-14T07:55:15;2.80;;;2.60;;
45650;SDS011;31365;48.858;8.530;2022-11-14T07:58:04;4.20;;;3.20;;
45650;SDS011;31365;48.858;8.530;2022-11-14T08:00:51;3.70;;;3.30;;
45650;SDS011;31365;48.858;8.530;2022-11-14T08:03:38;4.03;;;3.40;;
45650;SDS011;31365;48.858;8.530;2022-11-14T08:06:31;3.93;;;3.43;;
45650;SDS011;31365;48.858;8.530;2022-11-14T08:09:18;4.97;;;3.90;;
45650;SDS011;31365;48.858;8.530;2022-11-14T08:12:07;4.23;;;3.77;;
45650;SDS011;31365;48.858;8.530;2022-11-14T08:14:56;6.20;;;5.57;;
45650;SDS011;31365;48.858;8.530;2022-11-14T08:17:44;5.17;;;4.63;;
45650;SDS011;31365;48.858;8.530;2022-11-14T08:20:31;6.60;;;5.37;;
45650;SDS011;31365;48.858;8.530;2022-11-14T08:23:19;12.00;;;6.77;;
45650;SDS011;31365;48.858;8.530;2022-11-14T08:26:06;9.43;;;6.50;;
45650;SDS011;31365;48.858;8.530;2022-11-14T08:28:53;6.60;;;5.90;;
45650;SDS011;31365;48.858;8.530;2022-11-14T08:31:42;9.67;;;6.37;;
45650;SDS011;31365;48.858;8.530;2022-11-14T08:34:31;6.37;;;5.73;;
45650;SDS011;31365;48.858;8.530;2022-11-14T08:37:18;7.03;;;6.30;;
45650;SDS011;31365;48.858;8.530;2022-11-14T08:40:05;6.50;;;5.80;;
45650;SDS011;31365;48.858;8.530;2022-11-14T08:42:57;6.63;;;5.80;;
45650;SDS011;31365;48.858;8.530;2022-11-14T08:45:45;9.17;;;5.97;;
45650;SDS011;31365;48.858;8.530;2022-11-14T08:48:34;6.43;;;5.83;;
45650;SDS011;31365;48.858;8.530;2022-11-14T08:51:20;7.33;;;5.20;;
45650;SDS011;31365;48.858;8.530;2022-11-14T08:54:08;6.20;;;5.33;;
45650;SDS011;31365;48.858;8.530;2022-11-14T08:56:55;6.87;;;5.00;;
45650;SDS011;31365;48.858;8.530;2022-11-14T08:59:42;5.07;;;4.53;;
45650;SDS011;31365;48.858;8.530;2022-11-14T09:02:29;7.40;;;4.40;;
45650;SDS011;31365;48.858;8.530;2022-11-14T09:05:17;4.27;;;3.83;;
45650;SDS011;31365;48.858;8.530;2022-11-14T09:08:04;4.70;;;4.30;;
45650;SDS011;31365;48.858;8.530;2022-11-14T09:10:53;5.07;;;4.53;;
45650;SDS011;31365;48.858;8.530;2022-11-14T09:13:44;4.63;;;4.13;;
45650;SDS011;31365;48.858;8.530;2022-11-14T09:16:31;6.53;;;4.70;;
45650;SDS011;31365;48.858;8.530;2022-11-14T09:19:19;5.63;;;4.30;;
45650;SDS011;31365;48.858;8.530;2022-11-14T09:22:07;4.90;;;4.40;;
45650;SDS011;31365;48.858;8.530;2022-11-14T09:24:54;5.27;;;4.77;;
45650;SDS011;31365;48.858;8.530;2022-11-14T09:27:42;5.70;;;5.10;;
45650;SDS011;31365;48.858;8.530;2022-11-14T09:30:29;5.17;;;4.50;;
45650;SDS011;31365;48.858;8.530;2022-11-14T09:33:16;5.10;;;4.60;;
45650;SDS011;31365;48.858;8.530;2022-11-14T09:36:04;4.43;;;4.03;;
45650;SDS011;31365;48.858;8.530;2022-11-14T09:38:55;4.40;;;4.00;;
45650;SDS011;31365;48.858;8.530;2022-11-14T09:41:46;6.70;;;3.57;;
45650;SDS011;31365;48.858;8.530;2022-11-14T09:44:48;5.27;;;4.03;;
45650;SDS011;31365;48.858;8.530;2022-11-14T09:47:42;4.33;;;3.80;;
45650;SDS011;31365;48.858;8.530;2022-11-14T09:50:36;4.00;;;3.60;;
45650;SDS011;31365;48.858;8.530;2022-11-14T09:53:30;4.37;;;3.30;;
45650;SDS011;31365;48.858;8.530;2022-11-14T09:56:26;4.17;;;3.47;;
45650;SDS011;31365;48.858;8.530;2022-11-14T09:59:14;5.13;;;3.40;;
45650;SDS011;31365;48.858;8.530;2022-11-14T10:02:04;4.43;;;3.23;;
45650;SDS011;31365;48.858;8.530;2022-11-14T10:08:44;3.40;;;3.10;;
45650;SDS011;31365;48.858;8.530;2022-11-14T10:11:51;4.40;;;3.20;;
45650;SDS011;31365;48.858;8.530;2022-11-14T10:14:56;7.53;;;3.50;;
45650;SDS011;31365;48.858;8.530;2022-11-14T10:18:05;5.13;;;3.30;;
45650;SDS011;31365;48.858;8.530;2022-11-14T10:21:12;4.17;;;3.77;;
45650;SDS011;31365;48.858;8.530;2022-11-14T10:24:24;3.20;;;2.90;;
45650;SDS011;31365;48.858;8.530;2022-11-14T10:28:01;4.20;;;3.10;;
45650;SDS011;31365;48.858;8.530;2022-11-14T10:31:06;2.80;;;2.60;;
45650;SDS011;31365;48.858;8.530;2022-11-14T10:34:09;2.90;;;2.70;;
45650;SDS011;31365;48.858;8.530;2022-11-14T10:37:12;4.37;;;3.20;;
45650;SDS011;31365;48.858;8.530;2022-11-14T10:40:14;2.97;;;2.60;;
45650;SDS011;31365;48.858;8.530;2022-11-14T10:43:10;3.17;;;2.87;;
45650;SDS011;31365;48.858;8.530;2022-11-14T10:46:09;2.57;;;2.37;;
45650;SDS011;31365;48.858;8.530;2022-11-14T10:49:10;2.97;;;2.60;;
45650;SDS011;31365;48.858;8.530;2022-11-14T10:52:04;2.30;;;2.10;;
45650;SDS011;31365;48.858;8.530;2022-11-14T10:55:02;3.87;;;2.13;;
45650;SDS011;31365;48.858;8.530;2022-11-14T10:57:55;2.27;;;1.97;;
45650;SDS011;31365;48.858;8.530;2022-11-14T11:00:44;2.47;;;2.20;;
45650;SDS011;31365;48.858;8.530;2022-11-14T11:06:36;2.40;;;2.20;;
45650;SDS011;31365;48.858;8.530;2022-11-14T11:09:24;2.63;;;2.07;;
45650;SDS011;31365;48.858;8.530;2022-11-14T11:12:37;2.10;;;1.90;;
45650;SDS011;31365;48.858;8.530;2022-11-14T11:15:31;2.23;;;1.90;;
45650;SDS011;31365;48.858;8.530;2022-11-14T11:18:28;3.17;;;2.67;;
45650;SDS011;31365;48.858;8.530;2022-11-14T11:21:19;2.97;;;2.43;;
45650;SDS011;31365;48.858;8.530;2022-11-14T11:24:08;2.43;;;1.93;;
45650;SDS011;31365;48.858;8.530;2022-11-14T11:27:10;3.47;;;2.03;;
45650;SDS011;31365;48.858;8.530;2022-11-14T11:30:00;10.33;;;2.33;;
45650;SDS011;31365;48.858;8.530;2022-11-14T11:33:16;2.10;;;1.87;;
45650;SDS011;31365;48.858;8.530;2022-11-14T11:36:13;1.80;;;1.70;;
45650;SDS011;31365;48.858;8.530;2022-11-14T11:39:04;3.10;;;2.27;;
45650;SDS011;31365;48.858;8.530;2022-11-14T11:42:04;3.03;;;2.73;;
45650;SDS011;31365;48.858;8.530;2022-11-14T11:45:01;1.47;;;1.37;;
45650;SDS011;31365;48.858;8.530;2022-11-14T11:48:00;3.93;;;1.70;;
45650;SDS011;31365;48.858;8.530;2022-11-14T11:50:59;2.57;;;1.40;;
45650;SDS011;31365;48.858;8.530;2022-11-14T11:53:54;2.30;;;2.10;;
45650;SDS011;31365;48.858;8.530;2022-11-14T11:56:48;1.97;;;1.70;;
45650;SDS011;31365;48.858;8.530;2022-11-14T11:59:42;3.97;;;1.50;;
45650;SDS011;31365;48.858;8.530;2022-11-14T12:02:38;2.23;;;1.70;;
45650;SDS011;31365;48.858;8.530;2022-11-14T12:05:37;4.13;;;1.57;;
45650;SDS011;31365;48.858;8.530;2022-11-14T12:08:36;3.53;;;1.80;;
45650;SDS011;31365;48.858;8.530;2022-11-14T12:11:35;3.63;;;1.70;;
45650;SDS011;31365;48.858;8.530;2022-11-14T12:17:52;3.13;;;2.03;;
45650;SDS011;31365;48.858;8.530;2022-11-14T12:21:02;1.90;;;1.70;;
45650;SDS011;31365;48.858;8.530;2022-11-14T12:27:48;2.47;;;1.60;;
45650;SDS011;31365;48.858;8.530;2022-11-14T12:30:59;2.00;;;1.40;;
45650;SDS011;31365;48.858;8.530;2022-11-14T12:33:55;4.07;;;2.10;;
45650;SDS011;31365;48.858;8.530;2022-11-14T12:36:46;3.83;;;2.17;;
45650;SDS011;31365;48.858;8.530;2022-11-14T12:39:34;3.57;;;2.97;;
45650;SDS011;31365;48.858;8.530;2022-11-14T12:42:22;2.30;;;2.00;;
45650;SDS011;31365;48.858;8.530;2022-11-14T12:48:46;4.80;;;1.90;;
45650;SDS011;31365;48.858;8.530;2022-11-14T12:54:43;9.67;;;6.23;;
45650;SDS011;31365;48.858;8.530;2022-11-14T12:57:34;6.83;;;2.73;;
45650;SDS011;31365;48.858;8.530;2022-11-14T13:00:33;10.67;;;7.30;;
45650;SDS011;31365;48.858;8.530;2022-11-14T13:03:30;9.30;;;5.33;;
45650;SDS011;31365;48.858;8.530;2022-11-14T13:06:41;9.23;;;3.30;;
45650;SDS011;31365;48.858;8.530;2022-11-14T13:09:53;4.00;;;2.20;;
45650;SDS011;31365;48.858;8.530;2022-11-14T13:12:59;2.60;;;2.20;;
45650;SDS011;31365;48.858;8.530;2022-11-14T13:16:21;17.80;;;11.27;;
45650;SDS011;31365;48.858;8.530;2022-11-14T13:19:32;5.37;;;4.07;;
45650;SDS011;31365;48.858;8.530;2022-11-14T13:22:39;12.73;;;3.23;;
45650;SDS011;31365;48.858;8.530;2022-11-14T13:25:28;4.13;;;1.83;;
45650;SDS011;31365;48.858;8.530;2022-11-14T13:31:43;16.53;;;10.47;;
45650;SDS011;31365;48.858;8.530;2022-11-14T13:34:48;4.43;;;2.50;;
45650;SDS011;31365;48.858;8.530;2022-11-14T13:37:43;5.20;;;2.50;;
45650;SDS011;31365;48.858;8.530;2022-11-14T13:40:55;4.60;;;2.90;;
45650;SDS011;31365;48.858;8.530;2022-11-14T13:44:30;4.40;;;2.00;;
45650;SDS011;31365;48.858;8.530;2022-11-14T13:47:45;5.27;;;2.60;;
45650;SDS011;31365;48.858;8.530;2022-11-14T13:51:02;4.90;;;2.50;;
45650;SDS011;31365;48.858;8.530;2022-11-14T13:54:15;3.93;;;2.20;;
45650;SDS011;31365;48.858;8.530;2022-11-14T13:57:04;4.97;;;2.90;;
45650;SDS011;31365;48.858;8.530;2022-11-14T14:00:08;3.60;;;2.13;;
45650;SDS011;31365;48.858;8.530;2022-11-14T14:03:16;8.67;;;2.70;;
45650;SDS011;31365;48.858;8.530;2022-11-14T14:06:27;3.33;;;2.90;;
45650;SDS011;31365;48.858;8.530;2022-11-14T14:09:27;3.53;;;3.00;;
45650;SDS011;31365;48.858;8.530;2022-11-14T14:12:42;3.77;;;2.73;;
45650;SDS011;31365;48.858;8.530;2022-11-14T14:15:46;3.33;;;2.43;;
45650;SDS011;31365;48.858;8.530;2022-11-14T14:18:48;5.33;;;3.10;;
45650;SDS011;31365;48.858;8.530;2022-11-14T14:21:49;5.33;;;3.50;;
45650;SDS011;31365;48.858;8.530;2022-11-14T14:24:49;4.63;;;2.67;;
45650;SDS011;31365;48.858;8.530;2022-11-14T14:27:48;5.33;;;3.70;;
45650;SDS011;31365;48.858;8.530;2022-11-14T14:31:01;7.53;;;3.50;;
45650;SDS011;31365;48.858;8.530;2022-11-14T14:33:56;4.13;;;3.40;;
45650;SDS011;31365;48.858;8.530;2022-11-14T14:36:48;8.87;;;3.90;;
45650;SDS011;31365;48.858;8.530;2022-11-14T14:39:38;5.80;;;3.50;;
45650;SDS011;31365;48.858;8.530;2022-11-14T14:42:25;7.23;;;4.33;;
45650;SDS011;31365;48.858;8.530;2022-11-14T14:45:22;7.27;;;3.70;;
45650;SDS011;31365;48.858;8.530;2022-11-14T14:48:13;8.90;;;6.23;;
45650;SDS011;31365;48.858;8.530;2022-11-14T14:51:09;5.10;;;2.67;;
45650;SDS011;31365;48.858;8.530;2022-11-14T14:54:00;7.03;;;2.97;;
45650;SDS011;31365;48.858;8.530;2022-11-14T14:56:54;3.47;;;2.50;;
45650;SDS011;31365;48.858;8.530;2022-11-14T14:59:45;3.00;;;1.97;;
45650;SDS011;31365;48.858;8.530;2022-11-14T15:02:43;4.20;;;2.40;;
45650;SDS011;31365;48.858;8.530;2022-11-14T15:05:31;3.17;;;2.27;;
45650;SDS011;31365;48.858;8.530;2022-11-14T15:08:18;5.17;;;3.00;;
45650;SDS011;31365;48.858;8.530;2022-11-14T15:11:06;7.23;;;3.70;;
45650;SDS011;31365;48.858;8.530;2022-11-14T15:13:54;4.27;;;2.80;;
45650;SDS011;31365;48.858;8.530;2022-11-14T15:16:44;7.87;;;3.23;;
45650;SDS011;31365;48.858;8.530;2022-11-14T15:19:36;10.47;;;4.00;;
45650;SDS011;31365;48.858;8.530;2022-11-14T15:22:27;7.27;;;3.27;;
45650;SDS011;31365;48.858;8.530;2022-11-14T15:25:16;5.37;;;2.90;;
45650;SDS011;31365;48.858;8.530;2022-11-14T15:28:12;7.77;;;4.23;;
45650;SDS011;31365;48.858;8.530;2022-11-14T15:31:04;4.40;;;2.67;;
45650;SDS011;31365;48.858;8.530;2022-11-14T15:34:02;5.93;;;3.27;;
45650;SDS011;31365;48.858;8.530;2022-11-14T15:37:17;7.50;;;4.60;;
45650;SDS011;31365;48.858;8.530;2022-11-14T15:40:15;7.47;;;5.03;;
45650;SDS011;31365;48.858;8.530;2022-11-14T15:46:39;14.67;;;9.97;;
45650;SDS011;31365;48.858;8.530;2022-11-14T15:49:31;8.47;;;6.27;;
45650;SDS011;31365;48.858;8.530;2022-11-14T15:52:20;7.23;;;5.60;;
45650;SDS011;31365;48.858;8.530;2022-11-14T15:55:13;9.07;;;5.30;;
45650;SDS011;31365;48.858;8.530;2022-11-14T15:58:02;7.07;;;4.03;;
45650;SDS011;31365;48.858;8.530;2022-11-14T16:01:16;8.60;;;4.73;;
45650;SDS011;31365;48.858;8.530;2022-11-14T16:04:12;9.30;;;4.23;;
45650;SDS011;31365;48.858;8.530;2022-11-14T16:07:02;5.17;;;3.90;;
45650;SDS011;31365;48.858;8.530;2022-11-14T16:09:49;8.67;;;3.97;;
45650;SDS011;31365;48.858;8.530;2022-11-14T16:12:37;13.97;;;4.40;;
45650;SDS011;31365;48.858;8.530;2022-11-14T16:15:24;7.87;;;3.90;;
45650;SDS011;31365;48.858;8.530;2022-11-14T16:18:12;4.87;;;3.00;;
45650;SDS011;31365;48.858;8.530;2022-11-14T16:21:01;7.27;;;3.03;;
45650;SDS011;31365;48.858;8.530;2022-11-14T16:23:49;6.00;;;3.23;;
45650;SDS011;31365;48.858;8.530;2022-11-14T16:26:36;5.20;;;3.50;;
45650;SDS011;31365;48.858;8.530;2022-11-14T16:29:25;7.50;;;3.83;;
45650;SDS011;31365;48.858;8.530;2022-11-14T16:32:12;6.57;;;4.33;;
45650;SDS011;31365;48.858;8.530;2022-11-14T16:35:00;8.40;;;4.90;;
45650;SDS011;31365;48.858;8.530;2022-11-14T16:37:48;5.43;;;2.50;;
45650;SDS011;31365;48.858;8.530;2022-11-14T16:40:36;3.60;;;1.97;;
45650;SDS011;31365;48.858;8.530;2022-11-14T16:43:29;3.60;;;2.63;;
45650;SDS011;31365;48.858;8.530;2022-11-14T16:46:17;2.50;;;2.20;;
45650;SDS011;31365;48.858;8.530;2022-11-14T16:49:04;3.70;;;3.00;;
45650;SDS011;31365;48.858;8.530;2022-11-14T16:51:53;3.87;;;2.97;;
45650;SDS011;31365;48.858;8.530;2022-11-14T16:54:41;13.73;;;9.33;;
45650;SDS011;31365;48.858;8.530;2022-11-14T16:57:28;13.47;;;9.30;;
45650;SDS011;31365;48.858;8.530;2022-11-14T17:00:16;11.50;;;7.43;;
45650;SDS011;31365;48.858;8.530;2022-11-14T17:03:02;17.50;;;10.27;;
45650;SDS011;31365;48.858;8.530;2022-11-14T17:05:50;32.77;;;18.80;;
45650;SDS011;31365;48.858;8.530;2022-11-14T17:08:39;9.13;;;5.20;;
45650;SDS011;31365;48.858;8.530;2022-11-14T17:11:26;7.47;;;4.17;;
45650;SDS011;31365;48.858;8.530;2022-11-14T17:14:13;7.53;;;5.10;;
45650;SDS011;31365;48.858;8.530;2022-11-14T17:17:00;5.17;;;3.73;;
45650;SDS011;31365;48.858;8.530;2022-11-14T17:19:47;5.07;;;2.90;;
45650;SDS011;31365;48.858;8.530;2022-11-14T17:22:34;4.07;;;2.60;;
45650;SDS011;31365;48.858;8.530;2022-11-14T17:25:23;2.27;;;2.07;;
45650;SDS011;31365;48.858;8.530;2022-11-14T17:28:10;4.57;;;2.27;;
45650;SDS011;31365;48.858;8.530;2022-11-14T17:30:58;7.00;;;2.50;;
45650;SDS011;31365;48.858;8.530;2022-11-14T17:33:49;4.80;;;3.40;;
45650;SDS011;31365;48.858;8.530;2022-11-14T17:36:37;6.73;;;2.93;;
45650;SDS011;31365;48.858;8.530;2022-11-14T17:39:24;3.53;;;2.20;;
45650;SDS011;31365;48.858;8.530;2022-11-14T17:42:13;4.53;;;3.33;;
45650;SDS011;31365;48.858;8.530;2022-11-14T17:44:59;7.33;;;3.40;;
45650;SDS011;31365;48.858;8.530;2022-11-14T17:47:46;7.77;;;3.50;;
45650;SDS011;31365;48.858;8.530;2022-11-14T17:50:36;6.10;;;2.70;;
45650;SDS011;31365;48.858;8.530;2022-11-14T17:53:24;4.87;;;2.80;;